Lakki Marwat Weather



Lakki Marwat's Current Weather

Temprature 28.8o few clouds

few clouds

Rain: 0 %

Min Temprature28.8o
Max Temprature28.8o
Humidity32
Wind Speed2.43 m/h
Sun Rise06:21:52
Sun Set17:41:03
Current Time: 18-Oct-2019 16:02:36
Lat/Lon: 32.61, 70.91




Lakki Marwat's Geo Location



Lakki Marwat's Weather Forecast

Time Overall Temp Min Temp Max Temp Humidity Wind Speed Rain
18-Oct-2019 (Fri)
17:00:00 few clouds 28.410 28.410 28.800 32 2.43 m/h 0 %
20:00:00 light rain 26.710 26.710 27.000 36 2.4 m/h 156 %
23:00:00 light rain 23.630 23.630 23.828 36 2.64 m/h 6 %
19-Oct-2019 (Sat)
02:00:00 light rain 22.670 22.670 22.768 44 0.39 m/h 13 %
05:00:00 scattered clouds 22.223 22.223 22.223 44 0.86 m/h 0 %
08:00:00 clear sky 24.091 24.091 24.091 35 0.8 m/h 0 %
11:00:00 clear sky 28.510 28.510 28.510 24 1.79 m/h 0 %
14:00:00 clear sky 29.946 29.946 29.946 21 2.11 m/h 0 %
17:00:00 clear sky 29.662 29.662 29.662 21 1.59 m/h 0 %
20:00:00 clear sky 27.088 27.088 27.088 30 1.03 m/h 0 %
23:00:00 clear sky 25.877 25.877 25.877 31 1.47 m/h 0 %
20-Oct-2019 (Sun)
02:00:00 clear sky 24.337 24.337 24.337 35 0.94 m/h 0 %
05:00:00 clear sky 23.284 23.284 23.284 36 1.15 m/h 0 %
08:00:00 few clouds 26.282 26.282 26.282 30 0.32 m/h 0 %
11:00:00 broken clouds 28.390 28.390 28.390 23 1.11 m/h 0 %
14:00:00 overcast clouds 30.072 30.072 30.072 21 2.4 m/h 0 %
17:00:00 broken clouds 29.908 29.908 29.908 20 2.06 m/h 0 %
20:00:00 clear sky 26.802 26.802 26.802 31 0.17 m/h 0 %
23:00:00 clear sky 25.347 25.347 25.347 32 0.43 m/h 0 %
21-Oct-2019 (Mon)
02:00:00 clear sky 24.040 24.040 24.040 34 1.09 m/h 0 %
05:00:00 clear sky 22.971 22.971 22.971 36 0.93 m/h 0 %
08:00:00 clear sky 26.069 26.069 26.069 30 0.71 m/h 0 %
11:00:00 clear sky 28.827 28.827 28.827 22 1.21 m/h 0 %
14:00:00 clear sky 30.395 30.395 30.395 20 2.76 m/h 0 %
17:00:00 clear sky 30.134 30.134 30.134 18 1.74 m/h 0 %
20:00:00 clear sky 27.104 27.104 27.104 24 1.21 m/h 0 %
23:00:00 clear sky 24.990 24.990 24.990 29 0.41 m/h 0 %
22-Oct-2019 (Tue)
02:00:00 clear sky 24.066 24.066 24.066 29 1.19 m/h 0 %
05:00:00 clear sky 22.739 22.739 22.739 32 0.52 m/h 0 %
08:00:00 clear sky 25.852 25.852 25.852 28 0.09 m/h 0 %
11:00:00 clear sky 28.769 28.769 28.769 20 0.73 m/h 0 %
14:00:00 overcast clouds 30.359 30.359 30.359 16 2.19 m/h 0 %
17:00:00 overcast clouds 29.872 29.872 29.872 16 1.85 m/h 0 %
20:00:00 broken clouds 27.850 27.850 27.850 23 0.77 m/h 0 %
23:00:00 broken clouds 25.359 25.359 25.359 25 0.86 m/h 0 %
23-Oct-2019 (Wed)
02:00:00 few clouds 23.716 23.716 23.716 28 0.5 m/h 0 %
05:00:00 clear sky 23.207 23.207 23.207 27 2.17 m/h 0 %
08:00:00 clear sky 25.109 25.109 25.109 26 3.2 m/h 0 %
11:00:00 clear sky 28.355 28.355 28.355 23 3.85 m/h 0 %
14:00:00 clear sky 29.989 29.989 29.989 20 3.54 m/h 0 %

Famous Cities (61)